Aérodrome :
LOGIN :

S'inscrire | Disclaimer

   EN    FR    IT 

 










Légende :    VFR   VFR Marginal   IFR   IFR Intensif   IFR Très Intensif
Visi : 
Plafond : 
>= 8 km
>= 3000ft
5 à 8 km
1000 à 3000 ft
1500m à 5 km
500 à 1000 ft
800 à 1500m
200 à 500 ft
< 800m
< 200 ft
Symboles :   Orages  Brouillard  Fortes neiges  Fortes précipitations  Vent > 20 kt
SIGMETs :   Divers  Orages  Givrage  Turbulence  Onde Orograph.  Cendres Volcan.






- Altitude de l'aérodrome : 1325 ft
- Code IATA : EBU


LFMH - St-Etienne Boutheon

DERNIER METAR :
  • 301600Z AUTO 30004KT 270V340 CAVOK 21/10 Q1012 NOSIG

METARs EXPIRÉS :
  • 301530Z AUTO VRB02KT CAVOK 21/10 Q1012 NOSIG
  • 301500Z AUTO 34004KT 300V030 CAVOK 21/10 Q1012 NOSIG
  • 301430Z AUTO VRB04KT CAVOK 21/10 Q1013 NOSIG
  • 301400Z AUTO 01004KT 300V050 CAVOK 21/09 Q1013 NOSIG
  • 301330Z AUTO VRB03KT CAVOK 20/10 Q1013 NOSIG

TAF TAF LFMH
Valide du 30 à 15h jusqu'au 01 à 15h UTC


301400Z 3015/0115 VRB02KT CAVOK
BECMG 3019/3021 16008KT
TEMPO 0109/0112 RA OVC050
BECMG 0109/0112 24012KT
ATIS : +33 4 77 36 17 51



MET'MAP, la Météo Aéronautique d'un coup d'oeil ! - Copyright ORBIFLY Décembre 2007 - Disclaimer

ORBIFLY MET'MAP TEAM :

Programmation & Développement : Alexandra Zaïnal
Sur une idée originale de : Baudouin d'Aumeries
Assistance à la programmation : Marc-Olivier Méhu
Soutien technique & logistique : Manuel Goepfert

Contact : metmap@orbifly.com




SOURCES & CREDITS :

   NOAA